Latest Weather Observations for Strathalbyn

IDS60801

Issued at 7:01 pm CST Sunday 20 August 2017 (issued every 30 minutes, with the page automatically refreshed every 10 minutes)

About weather observations | Map of weather stations | Latest weather observations for SA | Other Formats
Station Details ID: 024580 Name: STRATHALBYN RACECOURSE Lat: -35.28 Lon: 138.89 Height: 58.0 m
Data from the previous 72 hours. | See also: Recent months at Strathalbyn
Date/Time
CST
Temp
°C
App
Temp
°C
Dew
Point
°C
Rel
Hum
%
Delta-T
°C
Wind Press
QNH
hPa
Press
MSL
hPa
Rain since
9am
mm
Dir  Spd
km/h
Gust
km/h
Spd
kts
Gust
kts
20/07:00pm 8.3 4.1 5.8 84 1.1 N 17 24 9 13 1015.4 1015.5 4.0
20/06:30pm 8.5 5.0 5.6 82 1.3 N 13 15 7 8 1015.5 1015.6 2.2
20/06:00pm 9.1 5.1 5.1 76 1.8 N 15 19 8 10 1016.0 1016.1 1.4
20/05:30pm 9.8 5.7 4.2 68 2.5 NNE 15 20 8 11 1015.6 1015.7 0.8
20/05:00pm 10.4 7.7 3.7 63 3.0 N 7 9 4 5 1015.2 1015.3 0.2
20/04:30pm 11.2 7.6 2.8 56 3.6 NE 11 13 6 7 1014.9 1015.0 0.0
20/04:00pm 11.9 7.4 2.1 51 4.2 NE 15 20 8 11 1015.2 1015.3 0.0
20/03:30pm 12.2 6.7 1.8 49 4.5 NNE 20 28 11 15 1015.4 1015.5 0.0
20/03:00pm 12.4 7.0 2.3 50 4.4 NE 20 28 11 15 1015.5 1015.6 0.0
20/02:30pm 12.7 6.5 2.3 49 4.5 NNE 24 32 13 17 1016.6 1016.7 0.0
20/02:00pm 12.3 6.1 2.2 50 4.4 NNE 24 32 13 17 1016.9 1017.0 0.0
20/01:30pm 12.8 5.5 2.6 50 4.5 NNE 30 41 16 22 1017.0 1017.1 0.0
20/01:00pm 12.3 4.6 2.2 50 4.4 NNE 32 44 17 24 1017.7 1017.8 0.0
20/12:30pm 13.4 5.9 3.2 50 4.6 NNE 32 46 17 25 1018.9 1019.0 0.0
20/12:00pm 13.1 5.2 2.1 47 4.8 NNE 33 44 18 24 1019.8 1019.9 0.0
20/11:32am 13.1 5.1 1.8 46 4.9 NNE 33 52 18 28 1021.0 1021.0 0.0
20/11:30am 12.9 4.6 1.9 47 4.7 NNE 35 52 19 28 1021.0 1021.0 0.0
20/11:05am 12.4 5.0 2.0 49 4.5 NNE 30 48 16 26 1021.6 1021.6 0.0
20/11:00am 12.0 4.3 2.5 52 4.1 NNE 32 48 17 26 1021.5 1021.5 0.0
20/10:30am 11.1 3.7 1.6 52 4.0 NNE 30 43 16 23 1022.1 1022.1 0.0
20/10:00am 11.4 4.3 1.6 51 4.2 NNE 28 39 15 21 1022.8 1022.8 0.0
20/09:30am 10.2 5.0 3.5 63 2.9 NNE 20 26 11 14 1023.5 1023.5 0.0
20/09:00am 8.8 3.7 3.0 67 2.5 NNE 19 26 10 14 1023.8 1023.8 0.0
20/08:30am 7.9 2.8 3.0 71 2.1 NE 19 26 10 14 1023.9 1023.9 0.0
20/08:00am 6.8 2.0 2.7 75 1.7 NNE 17 20 9 11 1024.3 1024.3 0.0
20/07:30am 5.9 1.0 1.8 75 1.6 N 17 20 9 11 1024.3 1024.3 0.0
20/07:00am 4.8 0.7 2.0 82 1.1 NNE 13 17 7 9 1024.0 1024.0 0.0
20/06:30am 3.3 0.1 0.7 83 1.0 NNE 7 9 4 5 1024.5 1024.5 0.0
20/06:00am 3.6 -0.4 0.8 82 1.1 N 11 13 6 7 1024.5 1024.5 0.0
20/05:30am 1.6 -1.8 -0.3 87 0.7 NNE 7 9 4 5 1024.9 1024.9 0.0
20/05:00am 2.6 -1.0 0.8 88 0.7 N 9 11 5 6 1025.1 1025.1 0.0
20/04:30am 2.4 -1.2 0.8 89 0.6 N 9 11 5 6 1025.1 1025.1 0.0
20/04:00am 2.9 -0.6 1.3 89 0.6 NNW 9 13 5 7 1025.2 1025.2 0.0
20/03:30am 2.6 -1.0 0.7 87 0.7 N 9 11 5 6 1025.2 1025.2 0.0
20/03:00am 3.3 -0.6 1.2 86 0.8 NNW 11 13 6 7 1025.3 1025.3 0.0
20/02:30am 3.3 -0.1 1.8 90 0.6 N 9 13 5 7 1025.5 1025.5 0.0
20/02:00am 3.4 -0.1 1.4 87 0.8 N 9 11 5 6 1025.9 1025.9 0.0
20/01:30am 3.9 0.1 1.8 86 0.8 NNW 11 13 6 7 1026.1 1026.1 0.0
20/01:00am 4.1 0.0 2.1 87 0.8 NNW 13 15 7 8 1026.5 1026.5 0.0
20/12:30am 4.9 0.5 2.8 86 0.9 NW 15 15 8 8 1026.8 1026.9 0.0
20/12:00am 4.8 0.8 2.8 87 0.8 NNW 13 15 7 8 1027.1 1027.2 0.0
 
Date/Time
CST
Temp
°C
App
Temp
°C
Dew
Point
°C
Rel
Hum
%
Delta-T
°C
Wind Press
QNH
hPa
Press
MSL
hPa
Rain since
9am
mm
Dir  Spd
km/h
Gust
km/h
Spd
kts
Gust
kts
19/11:30pm 4.4 -0.1 2.3 86 0.8 NW 15 17 8 9 1027.1 1027.2 0.0
19/11:00pm 4.7 0.6 2.4 85 0.9 NNW 13 15 7 8 1027.4 1027.5 0.0
19/10:30pm 5.0 0.9 2.5 84 1.0 NW 13 15 7 8 1027.6 1027.7 0.0
19/10:00pm 5.5 1.2 3.0 84 1.0 NW 15 17 8 9 1027.6 1027.7 0.0
19/09:30pm 5.3 0.6 3.0 85 0.9 NW 17 17 9 9 1027.8 1027.9 0.0
19/09:00pm 4.8 1.2 2.7 86 0.8 NNW 11 13 6 7 1027.9 1028.0 0.0
19/08:30pm 5.3 2.5 3.2 86 0.9 NNW 7 11 4 6 1028.0 1028.1 0.0
19/08:00pm 5.7 2.1 3.0 83 1.1 NNW 11 13 6 7 1028.2 1028.3 0.0
19/07:30pm 6.9 5.1 3.2 77 1.5 SW 2 9 1 5 1028.1 1028.2 0.0
19/07:00pm 7.6 4.5 3.5 75 1.8 WSW 9 11 5 6 1028.2 1028.3 0.0
19/06:30pm 8.3 5.1 3.2 70 2.2 SSW 9 11 5 6 1028.1 1028.2 0.0
19/06:00pm 9.3 6.8 3.7 68 2.4 SSE 6 7 3 4 1028.0 1028.1 0.0
19/05:30pm 10.9 8.1 3.2 59 3.3 SE 7 9 4 5 1027.8 1027.9 0.0
19/05:00pm 11.8 9.1 3.6 57 3.7 SE 7 11 4 6 1027.8 1027.9 0.0
19/04:30pm 12.6 9.6 4.3 57 3.8 SSE 9 13 5 7 1027.5 1027.6 0.0
19/04:00pm 12.9 9.9 4.1 55 4.0 SE 9 15 5 8 1027.2 1027.3 0.0
19/03:30pm 13.0 9.9 3.4 52 4.3 SSE 9 13 5 7 1027.2 1027.3 0.0
19/03:00pm 13.2 10.5 3.8 53 4.2 SSE 7 15 4 8 1027.3 1027.4 0.0
19/02:30pm 12.6 9.4 5.1 60 3.4 SE 11 19 6 10 1027.7 1027.8 0.0
19/02:00pm 13.7 10.7 4.0 52 4.4 S 9 15 5 8 1027.9 1028.0 0.0
19/01:30pm 13.4 10.8 4.0 53 4.2 S 7 15 4 8 1028.3 1028.4 0.0
19/01:00pm 12.9 9.8 3.6 53 4.2 SSE 9 15 5 8 1028.9 1029.0 0.0
19/12:30pm 12.9 10.3 4.1 55 4.0 SSE 7 11 4 6 1029.3 1029.4 0.0
19/12:00pm 12.3 9.3 4.0 57 3.7 E 9 15 5 8 1029.6 1029.7 0.0
19/11:30am 12.9 10.7 5.1 59 3.6 NE 6 7 3 4 1029.9 1030.0 0.0
19/11:00am 11.4 9.9 5.1 65 2.9 ESE 2 7 1 4 1030.2 1030.3 0.0
19/10:30am 10.6 8.5 5.8 72 2.2 ENE 6 9 3 5 1030.3 1030.4 0.0
19/10:00am 9.7 7.4 5.7 76 1.8 SSE 7 9 4 5 1030.4 1030.5 0.0
19/09:30am 10.1 7.0 5.7 74 2.0 S 11 15 6 8 1030.4 1030.5 0.0
19/09:00am 9.6 5.3 5.2 74 2.0 SW 17 26 9 14 1029.9 1030.0 1.0
19/08:30am 10.6 6.5 4.1 64 2.9 W 15 20 8 11 1029.5 1029.6 1.0
19/08:00am 9.4 5.6 3.8 68 2.5 W 13 17 7 9 1029.2 1029.3 1.0
19/07:30am 8.2 3.9 3.3 71 2.1 WSW 15 20 8 11 1028.8 1028.9 1.0
19/07:00am 7.8 3.5 3.1 72 2.0 W 15 19 8 10 1028.3 1028.4 1.0
19/06:30am 7.9 3.6 3.4 73 1.9 W 15 19 8 10 1028.0 1028.1 1.0
19/06:00am 8.2 4.0 3.7 73 1.9 W 15 19 8 10 1027.6 1027.7 1.0
19/05:30am 8.3 3.7 3.6 72 2.0 W 17 20 9 11 1027.3 1027.4 1.0
19/05:00am 7.7 3.4 3.4 74 1.8 W 15 19 8 10 1027.0 1027.1 1.0
19/04:30am 7.4 3.5 3.3 75 1.7 W 13 17 7 9 1026.7 1026.7 1.0
19/04:00am 7.4 3.5 3.6 77 1.6 W 13 17 7 9 1026.3 1026.3 1.0
19/03:30am 7.6 3.0 3.6 76 1.7 W 17 20 9 11 1026.4 1026.4 1.0
19/03:00am 7.7 3.5 3.6 75 1.7 W 15 20 8 11 1026.3 1026.3 1.0
19/02:30am 7.7 3.5 3.6 75 1.7 W 15 19 8 10 1026.4 1026.4 1.0
19/02:00am 7.9 3.7 3.8 75 1.8 W 15 19 8 10 1026.4 1026.4 1.0
19/01:30am 8.2 3.7 4.2 76 1.7 W 17 20 9 11 1026.6 1026.6 1.0
19/01:00am 8.0 4.2 4.0 76 1.7 WNW 13 19 7 10 1026.5 1026.5 1.0
19/12:30am 8.1 4.0 4.3 77 1.7 W 15 19 8 10 1026.4 1026.4 1.0
19/12:00am 8.3 4.2 4.5 77 1.7 W 15 19 8 10 1026.4 1026.4 1.0
 
Date/Time
CST
Temp
°C
App
Temp
°C
Dew
Point
°C
Rel
Hum
%
Delta-T
°C
Wind Press
QNH
hPa
Press
MSL
hPa
Rain since
9am
mm
Dir  Spd
km/h
Gust
km/h
Spd
kts
Gust
kts
18/11:30pm 8.2 4.5 4.4 77 1.7 W 13 17 7 9 1026.4 1026.4 1.0
18/11:00pm 8.6 4.1 4.4 75 1.9 W 17 20 9 11 1026.3 1026.3 1.0
18/10:30pm 9.2 5.2 4.8 74 2.0 W 15 22 8 12 1026.2 1026.2 1.0
18/10:00pm 9.1 4.8 5.1 76 1.8 W 17 28 9 15 1026.3 1026.3 1.0
18/09:30pm 9.2 5.7 5.4 77 1.7 WSW 13 20 7 11 1026.2 1026.2 1.0
18/09:00pm 8.8 5.2 5.2 78 1.6 WSW 13 19 7 10 1026.0 1026.0 1.0
18/08:30pm 9.5 5.5 4.9 73 2.1 WSW 15 20 8 11 1025.9 1025.9 0.8
18/08:00pm 9.4 4.3 4.2 70 2.3 W 20 28 11 15 1025.4 1025.4 0.8
18/07:30pm 9.5 4.4 4.1 69 2.4 W 20 28 11 15 1025.2 1025.2 0.8
18/07:00pm 9.6 4.6 3.8 67 2.5 WSW 19 26 10 14 1024.9 1024.9 0.8
18/06:30pm 10.2 4.7 4.1 66 2.7 WSW 22 32 12 17 1024.8 1024.8 0.8
18/06:00pm 9.7 4.8 4.3 69 2.4 WSW 19 24 10 13 1024.4 1024.4 0.8
18/05:30pm 10.4 5.3 3.9 64 2.9 WSW 20 30 11 16 1024.0 1024.0 0.8
18/05:00pm 11.0 7.0 4.9 66 2.8 WSW 15 22 8 12 1023.7 1023.7 0.8
18/04:30pm 11.6 7.1 4.1 60 3.4 SW 17 33 9 18 1023.4 1023.4 0.8
18/04:00pm 11.9 5.9 3.2 55 3.8 SW 24 43 13 23 1023.0 1023.0 0.8
18/03:30pm 12.1 6.8 4.8 61 3.3 WSW 22 37 12 20 1022.9 1022.9 0.8
18/03:00pm 11.1 6.6 6.8 75 2.0 WSW 20 32 11 17 1022.9 1022.9 0.8
18/02:43pm 10.8 4.6 6.0 72 2.2 WSW 28 50 15 27 1022.9 1022.9 0.6
18/02:30pm 10.9 4.5 5.4 69 2.5 SW 28 44 15 24 1022.4 1022.4 0.6
18/02:00pm 12.3 6.6 4.8 60 3.4 WSW 24 37 13 20 1022.2 1022.2 0.6
18/01:30pm 9.8 2.9 4.8 71 2.2 SW 30 54 16 29 1022.5 1022.5 0.2
18/01:29pm 10.3 3.8 4.9 69 2.4 SW 28 54 15 29 1022.6 1022.6 0.0
18/01:00pm 13.0 6.9 4.7 57 3.8 WSW 26 41 14 22 1022.1 1022.1 0.0
18/12:52pm 12.5 6.0 4.7 59 3.6 WSW 28 46 15 25 1022.1 1022.1 0.0
18/12:30pm 10.8 4.1 5.8 71 2.3 W 30 44 16 24 1022.3 1022.3 0.0
18/12:17pm 12.4 5.0 3.9 56 3.8 WSW 32 50 17 27 1022.2 1022.2 0.0
18/12:00pm 13.1 5.9 3.2 51 4.4 WSW 30 44 16 24 1022.0 1022.0 0.0
18/11:30am 13.2 6.4 3.3 51 4.4 WSW 28 46 15 25 1021.9 1021.9 0.0
18/11:21am 13.0 6.1 2.8 50 4.5 WSW 28 46 15 25 1021.9 1021.9 0.0
18/11:00am 12.3 5.0 2.7 52 4.2 WSW 30 41 16 22 1021.8 1021.8 0.0
18/10:50am 12.5 5.3 2.9 52 4.2 WSW 30 52 16 28 1021.6 1021.6 0.0
18/10:30am 12.5 5.4 3.7 55 3.9 WSW 30 43 16 23 1021.5 1021.5 0.0
18/10:00am 12.0 4.5 3.5 56 3.8 WSW 32 52 17 28 1021.2 1021.2 0.0
18/09:43am 12.2 5.6 4.4 59 3.5 WSW 28 46 15 25 1020.9 1020.9 0.0
18/09:30am 11.8 4.7 3.6 57 3.6 WSW 30 44 16 24 1020.7 1020.7 0.0
18/09:01am 11.3 4.3 4.3 62 3.2 WSW 30 48 16 26 1020.4 1020.4 0.0
18/09:00am 11.3 4.0 4.5 63 3.1 WSW 32 48 17 26 1020.4 1020.4 9.8
18/08:30am 10.7 3.3 4.2 64 2.9 WSW 32 44 17 24 1019.8 1019.9 9.8
18/08:00am 9.7 3.0 3.4 65 2.7 W 28 39 15 21 1019.3 1019.4 9.8
18/07:30am 9.0 3.0 3.6 69 2.3 W 24 35 13 19 1018.7 1018.8 9.8
18/07:00am 8.7 2.2 2.9 67 2.5 WSW 26 37 14 20 1018.4 1018.5 9.8
18/06:30am 9.2 3.2 3.4 67 2.5 WSW 24 39 13 21 1017.8 1017.9 9.8
18/06:00am 9.2 3.6 3.4 67 2.5 WSW 22 33 12 18 1017.4 1017.5 9.8
18/05:30am 9.2 3.6 3.4 67 2.5 WSW 22 35 12 19 1016.9 1017.0 9.8
18/05:00am 9.3 2.9 3.3 66 2.6 W 26 37 14 20 1016.4 1016.5 9.8
18/04:30am 9.3 2.4 2.6 63 2.8 W 28 43 15 23 1015.8 1015.9 9.8
18/04:00am 9.6 2.3 2.7 62 2.9 W 30 44 16 24 1015.5 1015.6 9.8
18/03:38am 9.4 2.6 2.9 64 2.8 W 28 46 15 25 1015.1 1015.2 9.8
18/03:30am 9.6 2.0 2.9 63 2.9 W 32 46 17 25 1015.1 1015.2 9.8
18/03:00am 9.5 2.2 2.4 61 3.0 W 30 44 16 24 1015.0 1015.1 9.8
18/02:30am 9.5 2.6 2.8 63 2.9 W 28 41 15 22 1014.7 1014.8 9.8
18/02:00am 9.7 2.9 3.0 63 2.9 W 28 41 15 22 1014.5 1014.6 9.8
18/01:30am 9.7 2.5 3.0 63 2.9 W 30 44 16 24 1014.2 1014.3 9.8
18/01:18am 9.5 2.8 3.5 66 2.6 W 28 46 15 25 1014.1 1014.2 9.8
18/01:00am 9.4 3.4 3.4 66 2.6 W 24 35 13 19 1014.0 1014.1 9.8
18/12:30am 9.8 2.3 3.3 64 2.8 W 32 46 17 25 1013.5 1013.6 9.8
18/12:22am 9.9 3.2 3.4 64 2.8 WSW 28 46 15 25 1013.5 1013.6 9.8
18/12:00am 10.0 4.1 3.7 65 2.8 WSW 24 41 13 22 1013.3 1013.4 9.8
 
Date/Time
CST
Temp
°C
App
Temp
°C
Dew
Point
°C
Rel
Hum
%
Delta-T
°C
Wind Press
QNH
hPa
Press
MSL
hPa
Rain since
9am
mm
Dir  Spd
km/h
Gust
km/h
Spd
kts
Gust
kts
17/11:30pm 10.3 2.8 3.6 63 2.9 W 32 44 17 24 1012.9 1013.0 9.8
17/11:16pm 10.1 3.0 3.6 64 2.8 W 30 48 16 26 1012.6 1012.7 9.8
17/11:00pm 9.9 3.6 3.6 65 2.8 W 26 43 14 23 1012.5 1012.6 9.8
17/10:30pm 9.4 3.1 3.8 68 2.5 W 26 41 14 22 1012.2 1012.2 9.8
17/10:11pm 9.8 0.9 3.3 64 2.8 W 39 70 21 38 1012.2 1012.2 9.8
17/10:00pm 9.9 2.9 3.9 66 2.6 W 30 48 16 26 1012.0 1012.0 9.6
17/09:32pm 9.6 2.5 3.8 67 2.5 W 30 54 16 29 1011.7 1011.7 9.6
17/09:30pm 9.4 2.4 4.0 69 2.4 W 30 44 16 24 1011.7 1011.7 9.6
17/09:11pm 10.0 2.7 4.6 69 2.4 W 32 54 17 29 1011.8 1011.8 9.2
17/09:00pm 9.6 2.6 4.2 69 2.4 W 30 43 16 23 1011.5 1011.5 9.2
17/08:30pm 9.2 0.5 4.0 70 2.3 W 39 69 21 37 1011.6 1011.6 9.2
17/08:25pm 10.0 2.3 3.5 64 2.8 W 33 69 18 37 1011.5 1011.5 9.2
17/08:15pm 10.5 4.0 4.6 67 2.7 W 28 46 15 25 1010.8 1010.8 9.0
17/08:00pm 9.8 3.6 4.2 68 2.5 W 26 39 14 21 1010.7 1010.7 9.0
17/07:30pm 9.2 2.2 4.2 71 2.2 W 30 41 16 22 1010.4 1010.4 9.0
17/07:08pm 9.8 2.2 5.8 76 1.8 WSW 35 54 19 29 1010.7 1010.7 8.6
17/07:03pm 9.8 3.4 5.4 74 2.0 W 28 54 15 29 1010.0 1010.0 8.6

Other Formats:

Comma delimited format used in spreadsheet applications
http://www.bom.gov.au/fwo/IDS60801/IDS60801.94814.axf

JavaScript Object Notation format (JSON) in row-major order
http://www.bom.gov.au/fwo/IDS60801/IDS60801.94814.json